createdAt,value
2022-10-19T00:01:57.851Z,7.97
2022-10-19T00:04:26.004Z,9.62
2022-10-19T00:06:59.237Z,10.01
2022-10-19T00:09:29.204Z,8.58
2022-10-19T00:11:58.225Z,7.27
2022-10-19T00:14:25.961Z,6.59
2022-10-19T00:16:55.674Z,7.77
2022-10-19T00:19:30.323Z,9.26
2022-10-19T00:21:58.555Z,10.30
2022-10-19T00:24:26.941Z,10.14
2022-10-19T00:26:55.885Z,8.78
2022-10-19T00:29:28.665Z,7.63
2022-10-19T00:31:58.713Z,6.78
2022-10-19T00:34:28.892Z,6.11
2022-10-19T00:36:56.780Z,6.42
2022-10-19T00:39:25.909Z,8.29
2022-10-19T00:41:54.894Z,9.73
2022-10-19T00:44:29.112Z,10.25
2022-10-19T00:47:07.395Z,9.16
2022-10-19T00:49:44.137Z,7.97
2022-10-19T00:52:25.137Z,7.01
2022-10-19T00:54:58.406Z,6.34
2022-10-19T00:57:31.804Z,5.84
2022-10-19T01:00:06.840Z,6.90
2022-10-19T01:02:36.877Z,8.87
2022-10-19T01:05:09.565Z,10.16
2022-10-19T01:07:38.646Z,10.21
2022-10-19T01:10:10.033Z,8.93
2022-10-19T01:13:06.519Z,7.76
2022-10-19T01:16:06.888Z,6.76
2022-10-19T01:18:56.510Z,6.62
2022-10-19T01:22:26.238Z,8.32
2022-10-19T01:25:35.933Z,9.44
2022-10-19T01:29:05.040Z,9.19
2022-10-19T01:31:50.755Z,7.27
2022-10-19T01:34:43.863Z,6.08
2022-10-19T01:37:46.710Z,5.63
2022-10-19T01:40:32.313Z,7.42
2022-10-19T01:43:13.130Z,8.78
2022-10-19T01:46:00.293Z,9.33
2022-10-19T01:48:36.443Z,8.06
2022-10-19T01:51:18.524Z,6.74
2022-10-19T01:53:57.034Z,5.81
2022-10-19T01:56:30.978Z,5.46
2022-10-19T01:59:07.571Z,7.01
2022-10-19T02:01:44.197Z,8.62
2022-10-19T02:04:20.046Z,9.55
2022-10-19T02:06:53.165Z,9.37
2022-10-19T02:09:26.886Z,8.08
2022-10-19T02:12:01.674Z,6.94
2022-10-19T02:14:44.793Z,6.00
2022-10-19T02:17:22.529Z,5.32
2022-10-19T02:19:52.742Z,5.13
2022-10-19T02:22:22.560Z,6.74
2022-10-19T02:24:53.807Z,8.42
2022-10-19T02:27:23.828Z,9.53
2022-10-19T02:29:54.500Z,9.09
2022-10-19T02:32:22.786Z,7.73
2022-10-19T02:34:52.620Z,6.51
2022-10-19T02:37:24.762Z,5.98
2022-10-19T02:39:54.563Z,7.27
2022-10-19T02:43:06.650Z,8.45
2022-10-19T02:45:51.922Z,9.49
2022-10-19T02:48:26.619Z,9.54
2022-10-19T02:50:54.626Z,8.12
2022-10-19T02:53:24.418Z,6.86
2022-10-19T02:55:52.527Z,5.93
2022-10-19T02:58:21.963Z,5.33
2022-10-19T03:00:51.150Z,6.29
2022-10-19T03:03:22.154Z,7.79
2022-10-19T03:05:50.063Z,8.78
2022-10-19T03:08:17.755Z,9.24
2022-10-19T03:10:45.889Z,8.37
2022-10-19T03:13:14.260Z,7.10
2022-10-19T03:15:41.909Z,6.09
2022-10-19T03:18:12.053Z,5.61
2022-10-19T03:20:39.732Z,6.84
2022-10-19T03:23:10.135Z,8.29
2022-10-19T03:25:39.948Z,9.20
2022-10-19T03:28:12.009Z,8.39
2022-10-19T03:30:42.093Z,6.93
2022-10-19T03:33:10.010Z,5.78
2022-10-19T03:35:38.365Z,4.93
2022-10-19T03:38:10.797Z,4.71
2022-10-19T03:40:42.082Z,6.10
2022-10-19T03:43:09.899Z,7.49
2022-10-19T03:45:39.264Z,8.53
2022-10-19T03:48:08.638Z,9.18
2022-10-19T03:50:37.653Z,8.87
2022-10-19T03:53:05.755Z,7.54
2022-10-19T03:55:34.378Z,6.36
2022-10-19T03:58:02.694Z,5.50
2022-10-19T04:00:30.589Z,5.27
2022-10-19T04:02:58.384Z,6.71
2022-10-19T04:05:27.234Z,8.11
2022-10-19T04:07:57.004Z,8.66
2022-10-19T04:10:25.364Z,8.05
2022-10-19T04:13:07.670Z,6.62
2022-10-19T04:15:35.745Z,5.57
2022-10-19T04:18:05.474Z,4.82
2022-10-19T04:20:35.195Z,4.26
2022-10-19T04:23:03.534Z,4.21
2022-10-19T04:25:31.478Z,5.82
2022-10-19T04:27:59.546Z,7.42
2022-10-19T04:30:29.431Z,8.51
2022-10-19T04:32:59.072Z,8.92
2022-10-19T04:35:27.511Z,7.85
2022-10-19T04:38:01.115Z,6.68
2022-10-19T04:40:47.122Z,5.70
2022-10-19T04:43:16.057Z,5.08
2022-10-19T04:45:43.669Z,5.83
2022-10-19T04:48:15.037Z,7.31
2022-10-19T04:50:43.319Z,8.35
2022-10-19T04:53:11.047Z,9.10
2022-10-19T04:55:42.839Z,9.17
2022-10-19T04:58:11.758Z,7.74
2022-10-19T05:00:41.364Z,6.36
2022-10-19T05:03:09.459Z,5.29
2022-10-19T05:05:37.633Z,4.61
2022-10-19T05:08:05.676Z,4.50
2022-10-19T05:10:36.800Z,6.18
2022-10-19T05:13:07.169Z,7.73
2022-10-19T05:15:35.029Z,8.73
2022-10-19T05:18:03.089Z,8.95
2022-10-19T05:20:31.437Z,7.55
2022-10-19T05:23:06.144Z,6.36
2022-10-19T05:25:35.558Z,5.25
2022-10-19T05:28:04.414Z,4.89
2022-10-19T05:30:32.900Z,6.48
2022-10-19T05:33:02.499Z,8.04
2022-10-19T05:35:30.202Z,8.89
2022-10-19T05:37:58.601Z,8.94
2022-10-19T05:40:26.447Z,7.64
2022-10-19T05:42:55.490Z,6.28
2022-10-19T05:45:26.112Z,5.24
2022-10-19T05:47:56.139Z,4.52
2022-10-19T05:50:35.319Z,4.46
2022-10-19T05:53:03.866Z,6.13
2022-10-19T05:55:35.672Z,7.62
2022-10-19T05:58:04.213Z,8.42
2022-10-19T06:00:36.053Z,8.56
2022-10-19T06:03:04.256Z,7.34
2022-10-19T06:05:36.849Z,6.05
2022-10-19T06:08:08.431Z,5.03
2022-10-19T06:10:37.878Z,4.39
2022-10-19T06:13:06.850Z,5.30
2022-10-19T06:15:36.656Z,7.12
2022-10-19T06:18:12.227Z,8.48
2022-10-19T06:20:42.472Z,8.46
2022-10-19T06:23:11.197Z,7.04
2022-10-19T06:25:42.507Z,5.76
2022-10-19T06:28:11.069Z,4.82
2022-10-19T06:30:43.238Z,4.43
2022-10-19T06:33:16.451Z,5.95
2022-10-19T06:35:45.245Z,7.60
2022-10-19T06:38:13.988Z,8.62
2022-10-19T06:40:49.266Z,8.94
2022-10-19T06:43:17.421Z,7.73
2022-10-19T06:45:45.517Z,6.51
2022-10-19T06:48:15.336Z,5.60
2022-10-19T06:50:43.360Z,4.88
2022-10-19T06:53:18.340Z,5.33
2022-10-19T06:55:46.310Z,6.93
2022-10-19T06:58:15.496Z,8.12
2022-10-19T07:00:44.284Z,7.68
2022-10-19T07:03:13.794Z,6.36
2022-10-19T07:06:02.923Z,5.25
2022-10-19T07:08:35.889Z,4.56
2022-10-19T07:11:09.383Z,5.64
2022-10-19T07:13:39.175Z,7.25
2022-10-19T07:16:15.892Z,8.23
2022-10-19T07:18:54.087Z,8.07
2022-10-19T07:21:24.314Z,6.66
2022-10-19T07:23:53.428Z,5.45
2022-10-19T07:26:28.527Z,4.80
2022-10-19T07:28:57.908Z,6.05
2022-10-19T07:31:29.298Z,7.14
2022-10-19T07:34:01.692Z,8.03
2022-10-19T07:36:34.735Z,7.38
2022-10-19T07:39:07.463Z,5.98
2022-10-19T07:41:35.994Z,5.13
2022-10-19T07:44:09.005Z,6.32
2022-10-19T07:46:43.452Z,7.64
2022-10-19T07:49:16.519Z,8.59
2022-10-19T07:51:46.387Z,8.87
2022-10-19T07:54:14.371Z,7.66
2022-10-19T07:56:45.415Z,6.31
2022-10-19T07:59:14.918Z,5.35
2022-10-19T08:01:44.226Z,4.74
2022-10-19T08:07:03.305Z,7.18
2022-10-19T08:09:52.016Z,8.41
2022-10-19T08:12:22.176Z,8.95
2022-10-19T08:14:53.012Z,7.79
2022-10-19T08:17:20.697Z,6.51
2022-10-19T08:19:50.437Z,5.48
2022-10-19T08:22:23.043Z,5.02
2022-10-19T08:24:52.853Z,6.34
2022-10-19T08:27:22.311Z,7.79
2022-10-19T08:29:51.737Z,8.85
2022-10-19T08:32:22.697Z,8.29
2022-10-19T08:34:50.385Z,6.87
2022-10-19T08:37:26.329Z,5.71
2022-10-19T08:40:25.324Z,4.84
2022-10-19T08:43:17.097Z,4.76
2022-10-19T08:46:15.900Z,6.77
2022-10-19T08:48:45.197Z,8.33
2022-10-19T08:51:14.936Z,8.45
2022-10-19T08:53:56.133Z,7.35
2022-10-19T08:56:51.492Z,6.11
2022-10-19T08:59:32.134Z,5.97
2022-10-19T09:02:14.131Z,7.64
2022-10-19T09:05:01.508Z,8.64
2022-10-19T09:07:35.365Z,7.95
2022-10-19T09:10:14.915Z,6.51
2022-10-19T09:12:58.651Z,5.63
2022-10-19T09:15:39.156Z,6.85
2022-10-19T09:18:33.520Z,8.02
2022-10-19T09:21:20.540Z,8.84
2022-10-19T09:24:33.190Z,7.82
2022-10-19T09:27:05.535Z,5.95
2022-10-19T09:29:47.612Z,6.01
2022-10-19T09:32:25.554Z,7.19
2022-10-19T09:34:58.934Z,7.92
2022-10-19T09:37:27.863Z,8.94
2022-10-19T09:39:56.924Z,8.71
2022-10-19T09:42:34.463Z,7.18
2022-10-19T09:45:24.852Z,6.02
2022-10-19T09:47:54.644Z,5.68
2022-10-19T09:50:26.132Z,6.92
2022-10-19T09:53:25.980Z,8.16
2022-10-19T09:56:17.101Z,9.19
2022-10-19T09:58:57.621Z,9.24
2022-10-19T10:01:43.979Z,7.93
2022-10-19T10:04:21.045Z,6.70
2022-10-19T10:06:50.600Z,5.94
2022-10-19T10:09:35.818Z,6.90
2022-10-19T10:12:08.499Z,8.59
2022-10-19T10:14:39.711Z,9.70
2022-10-19T10:17:31.144Z,10.31
2022-10-19T10:19:59.175Z,9.46
2022-10-19T10:22:36.490Z,8.10
2022-10-19T10:25:20.617Z,7.06
2022-10-19T10:28:20.799Z,6.34
2022-10-19T10:30:55.452Z,5.81
2022-10-19T10:33:40.768Z,6.90
2022-10-19T10:36:15.004Z,8.67
2022-10-19T10:38:52.174Z,9.64
2022-10-19T10:41:23.953Z,10.08
2022-10-19T10:44:09.084Z,8.78
2022-10-19T10:47:00.256Z,7.56
2022-10-19T10:49:37.417Z,7.00
2022-10-19T10:52:12.081Z,8.43
2022-10-19T10:55:10.288Z,9.34
2022-10-19T10:57:47.536Z,8.56
2022-10-19T11:00:20.598Z,7.30
2022-10-19T11:03:09.354Z,6.78
2022-10-19T11:05:55.929Z,8.38
2022-10-19T11:08:41.743Z,9.82
2022-10-19T11:11:45.890Z,9.64
2022-10-19T11:14:33.181Z,8.15
2022-10-19T11:17:12.928Z,7.19
2022-10-19T11:19:45.231Z,6.80
2022-10-19T11:22:48.488Z,8.11
2022-10-19T11:25:41.656Z,9.78
2022-10-19T11:29:07.590Z,10.58
2022-10-19T11:31:48.801Z,9.27
2022-10-19T11:34:42.470Z,7.81
2022-10-19T11:38:20.237Z,6.87
2022-10-19T11:41:39.406Z,8.55
2022-10-19T11:44:24.364Z,9.78
2022-10-19T11:47:05.703Z,8.91
2022-10-19T11:49:59.331Z,7.79
2022-10-19T11:52:52.019Z,7.39
2022-10-19T11:55:59.578Z,9.86
2022-10-19T11:58:38.560Z,11.40
2022-10-19T12:01:38.036Z,11.27
2022-10-19T12:04:28.643Z,9.70
2022-10-19T12:07:48.492Z,8.41
2022-10-19T12:10:40.825Z,7.39
2022-10-19T12:13:20.251Z,7.61
2022-10-19T12:15:54.291Z,9.94
2022-10-19T12:18:39.821Z,11.65
2022-10-19T12:21:41.351Z,11.33
2022-10-19T12:24:19.926Z,9.48
2022-10-19T12:26:55.214Z,8.11
2022-10-19T12:29:34.197Z,7.97
2022-10-19T12:32:08.383Z,10.41
2022-10-19T12:35:08.710Z,11.63
2022-10-19T12:37:56.243Z,10.53
2022-10-19T12:40:32.612Z,9.22
2022-10-19T12:43:21.456Z,8.28
2022-10-19T12:46:30.588Z,7.53
2022-10-19T12:49:27.287Z,9.20
2022-10-19T12:52:11.899Z,11.13
2022-10-19T12:54:46.204Z,11.87
2022-10-19T12:57:30.952Z,10.39
2022-10-19T13:00:21.005Z,8.81
2022-10-19T13:03:02.805Z,7.79
2022-10-19T13:05:36.687Z,8.42
2022-10-19T13:08:15.092Z,10.64
2022-10-19T13:11:15.250Z,10.69
2022-10-19T13:14:36.714Z,9.23
2022-10-19T13:17:10.799Z,8.81
2022-10-19T13:19:38.498Z,11.03
2022-10-19T13:22:35.749Z,11.26
2022-10-19T13:25:41.050Z,9.49
2022-10-19T13:28:15.544Z,8.61
2022-10-19T13:30:44.871Z,10.48
2022-10-19T13:33:24.825Z,11.29
2022-10-19T13:36:09.102Z,10.21
2022-10-19T13:38:59.187Z,8.94
2022-10-19T13:41:48.873Z,8.58
2022-10-19T13:44:25.795Z,10.81
2022-10-19T13:47:34.428Z,11.99
2022-10-19T13:50:34.141Z,10.66
2022-10-19T13:53:50.869Z,9.09
2022-10-19T13:57:29.222Z,8.79
2022-10-19T14:00:18.319Z,11.50
2022-10-19T14:03:24.115Z,11.96
2022-10-19T14:06:06.338Z,10.24
2022-10-19T14:09:13.076Z,9.00
2022-10-19T14:11:48.508Z,8.77
2022-10-19T14:14:23.344Z,10.91
2022-10-19T14:17:01.437Z,11.95
2022-10-19T14:19:44.233Z,10.94
2022-10-19T14:22:38.287Z,9.66
2022-10-19T14:25:20.464Z,8.51
2022-10-19T14:27:58.417Z,8.92
2022-10-19T14:30:36.772Z,11.05
2022-10-19T14:33:15.054Z,11.45
2022-10-19T14:35:49.637Z,10.12
2022-10-19T14:38:32.312Z,8.97
2022-10-19T14:41:00.079Z,8.82
2022-10-19T14:43:31.974Z,11.01
2022-10-19T14:46:12.762Z,12.11
2022-10-19T14:48:49.698Z,10.92
2022-10-19T14:51:36.483Z,9.49
2022-10-19T14:54:18.729Z,8.55
2022-10-19T14:56:56.570Z,9.88
2022-10-19T14:59:40.420Z,11.82
2022-10-19T15:02:45.609Z,12.22
2022-10-19T15:05:25.369Z,10.68
2022-10-19T15:07:54.943Z,9.36
2022-10-19T15:10:50.736Z,8.42
2022-10-19T15:13:44.354Z,7.67
2022-10-19T15:16:43.294Z,8.70
2022-10-19T15:19:43.415Z,11.40
2022-10-19T15:22:37.081Z,12.14
2022-10-19T15:25:14.991Z,10.51
2022-10-19T15:27:48.328Z,9.06
2022-10-19T15:30:29.504Z,9.12
2022-10-19T15:33:03.765Z,11.31
2022-10-19T15:35:37.757Z,11.76
2022-10-19T15:38:23.693Z,10.34
2022-10-19T15:40:59.993Z,9.01
2022-10-19T15:43:46.305Z,8.11
2022-10-19T15:46:31.284Z,7.43
2022-10-19T15:49:24.944Z,8.94
2022-10-19T15:51:52.689Z,10.96
2022-10-19T15:54:20.592Z,11.71
2022-10-19T15:56:53.671Z,10.62
2022-10-19T15:59:25.939Z,9.16
2022-10-19T16:01:56.477Z,8.04
2022-10-19T16:04:24.298Z,7.28
2022-10-19T16:06:52.799Z,7.83
2022-10-19T16:09:23.170Z,10.06
2022-10-19T16:11:56.890Z,11.43
2022-10-19T16:14:31.886Z,11.66
2022-10-19T16:17:05.443Z,9.94
2022-10-19T16:19:34.133Z,8.55
2022-10-19T16:22:03.349Z,7.63
2022-10-19T16:24:31.985Z,8.55
2022-10-19T16:27:01.572Z,10.78
2022-10-19T16:29:30.903Z,11.74
2022-10-19T16:32:01.401Z,10.52
2022-10-19T16:34:29.224Z,9.13
2022-10-19T16:37:02.629Z,8.12
2022-10-19T16:39:35.325Z,7.97
2022-10-19T16:42:05.337Z,9.89
2022-10-19T16:44:33.061Z,11.08
2022-10-19T16:47:01.295Z,10.30
2022-10-19T16:49:35.389Z,8.91
2022-10-19T16:52:29.402Z,7.73
2022-10-19T16:55:03.467Z,7.14
2022-10-19T16:57:31.719Z,9.03
2022-10-19T16:59:59.823Z,10.77
2022-10-19T17:02:27.685Z,11.58
2022-10-19T17:04:56.652Z,10.38
2022-10-19T17:07:24.757Z,8.97
2022-10-19T17:09:55.133Z,7.94
2022-10-19T17:12:23.120Z,7.18
2022-10-19T17:14:51.664Z,7.12
2022-10-19T17:17:20.468Z,9.34
2022-10-19T17:19:49.237Z,11.34
2022-10-19T17:22:21.460Z,11.88
2022-10-19T17:24:49.131Z,10.43
2022-10-19T17:27:21.041Z,8.93
2022-10-19T17:29:49.628Z,7.79
2022-10-19T17:32:17.282Z,7.48
2022-10-19T17:34:45.353Z,9.36
2022-10-19T17:37:13.513Z,11.17
2022-10-19T17:39:44.233Z,11.65
2022-10-19T17:42:12.085Z,10.27
2022-10-19T17:44:41.314Z,8.91
2022-10-19T17:47:09.309Z,7.82
2022-10-19T17:49:42.873Z,7.62
2022-10-19T17:52:10.720Z,9.74
2022-10-19T17:54:48.736Z,11.47
2022-10-19T17:57:27.328Z,11.05
2022-10-19T17:59:55.123Z,9.59
2022-10-19T18:02:22.841Z,8.36
2022-10-19T18:04:50.767Z,7.49
2022-10-19T18:07:20.437Z,7.36
2022-10-19T18:09:48.302Z,9.04
2022-10-19T18:12:16.626Z,10.94
2022-10-19T18:14:45.756Z,11.79
2022-10-19T18:17:16.333Z,10.57
2022-10-19T18:19:44.465Z,9.06
2022-10-19T18:22:12.622Z,7.93
2022-10-19T18:24:40.688Z,7.20
2022-10-19T18:27:08.503Z,8.60
2022-10-19T18:29:36.171Z,10.85
2022-10-19T18:34:38.797Z,11.98
2022-10-19T18:37:07.356Z,10.35
2022-10-19T18:39:35.528Z,8.91
2022-10-19T18:42:03.289Z,7.78
2022-10-19T18:44:33.507Z,6.97
2022-10-19T18:47:04.555Z,7.13
2022-10-19T18:49:37.257Z,9.36
2022-10-19T18:52:04.956Z,10.93
2022-10-19T18:54:32.600Z,11.59
2022-10-19T18:57:01.652Z,10.33
2022-10-19T18:59:29.470Z,8.86
2022-10-19T19:01:58.003Z,7.84
2022-10-19T19:04:25.787Z,7.09
2022-10-19T19:06:56.926Z,7.02
2022-10-19T19:09:24.903Z,9.05
2022-10-19T19:11:54.435Z,10.81
2022-10-19T19:14:22.286Z,11.16
2022-10-19T19:16:50.115Z,10.14
2022-10-19T19:19:20.064Z,8.77
2022-10-19T19:21:49.938Z,7.70
2022-10-19T19:24:22.166Z,7.16
2022-10-19T19:26:53.689Z,8.71
2022-10-19T19:29:29.513Z,10.70
2022-10-19T19:31:57.535Z,11.33
2022-10-19T19:34:25.257Z,9.96
2022-10-19T19:36:54.237Z,8.72
2022-10-19T19:39:23.761Z,7.75
2022-10-19T19:41:51.513Z,7.37
2022-10-19T19:44:21.306Z,8.73
2022-10-19T19:46:50.084Z,10.11
2022-10-19T19:49:17.975Z,10.87
2022-10-19T19:51:47.735Z,10.15
2022-10-19T19:54:16.208Z,8.77
2022-10-19T19:56:43.821Z,7.67
2022-10-19T19:59:19.340Z,7.06
2022-10-19T20:01:48.665Z,8.25
2022-10-19T20:04:16.365Z,9.44
2022-10-19T20:06:44.634Z,10.25
2022-10-19T20:09:12.546Z,10.62
2022-10-19T20:11:42.617Z,9.33
2022-10-19T20:14:12.879Z,8.06
2022-10-19T20:16:42.878Z,7.47
2022-10-19T20:19:15.318Z,8.74
2022-10-19T20:21:43.712Z,9.89
2022-10-19T20:24:14.739Z,10.74
2022-10-19T20:26:42.556Z,10.74
2022-10-19T20:29:10.750Z,9.64
2022-10-19T20:31:41.781Z,8.29
2022-10-19T20:34:14.199Z,7.64
2022-10-19T20:36:42.788Z,8.90
2022-10-19T20:39:16.513Z,9.99
2022-10-19T20:41:44.242Z,10.28
2022-10-19T20:44:12.839Z,8.94
2022-10-19T20:46:45.089Z,7.63
2022-10-19T20:49:13.270Z,7.17
2022-10-19T20:51:41.688Z,8.49
2022-10-19T20:54:13.367Z,9.72
2022-10-19T20:56:42.936Z,10.36
2022-10-19T20:59:17.007Z,9.53
2022-10-19T21:01:50.652Z,8.07
2022-10-19T21:04:19.305Z,7.01
2022-10-19T21:06:50.593Z,7.53
2022-10-19T21:09:23.646Z,8.89
2022-10-19T21:11:53.388Z,9.91
2022-10-19T21:14:28.174Z,10.66
2022-10-19T21:16:59.394Z,10.59
2022-10-19T21:19:29.840Z,9.11
2022-10-19T21:22:02.399Z,7.87
2022-10-19T21:24:35.262Z,6.93
2022-10-19T21:27:09.416Z,6.68
2022-10-19T21:29:37.864Z,8.09
2022-10-19T21:32:08.309Z,9.29
2022-10-19T21:34:35.986Z,10.26
2022-10-19T21:37:04.649Z,10.55
2022-10-19T21:39:34.317Z,9.30
2022-10-19T21:42:03.573Z,7.78
2022-10-19T21:44:34.073Z,6.78
2022-10-19T21:47:01.878Z,7.42
2022-10-19T21:49:29.520Z,8.64
2022-10-19T21:51:57.941Z,9.71
2022-10-19T21:54:26.339Z,9.60
2022-10-19T21:56:55.942Z,8.21
2022-10-19T21:59:25.693Z,6.94
2022-10-19T22:01:55.343Z,6.41
2022-10-19T22:04:24.054Z,7.70
2022-10-19T22:06:52.309Z,9.11
2022-10-19T22:09:23.236Z,10.02
2022-10-19T22:11:50.981Z,10.10
2022-10-19T22:14:20.225Z,8.87
2022-10-19T22:16:48.917Z,7.62
2022-10-19T22:19:21.597Z,6.79
2022-10-19T22:21:50.860Z,7.84
2022-10-19T22:24:20.253Z,8.95
2022-10-19T22:26:50.898Z,9.65
2022-10-19T22:29:19.351Z,9.24
2022-10-19T22:31:47.200Z,7.94
2022-10-19T22:34:18.635Z,6.86
2022-10-19T22:36:46.599Z,6.40
2022-10-19T22:39:16.854Z,7.53
2022-10-19T22:43:04.885Z,8.78
2022-10-19T22:46:50.754Z,9.84
2022-10-19T22:50:35.107Z,7.73
2022-10-19T22:53:02.898Z,6.16
2022-10-19T22:55:30.767Z,6.96
2022-10-19T22:57:58.398Z,8.23
2022-10-19T23:00:27.517Z,9.11
2022-10-19T23:02:55.158Z,9.41
2022-10-19T23:05:25.542Z,8.23
2022-10-19T23:07:54.815Z,6.88
2022-10-19T23:10:26.153Z,5.86
2022-10-19T23:12:55.933Z,5.64
2022-10-19T23:15:24.663Z,7.07
2022-10-19T23:17:52.233Z,7.98
2022-10-19T23:20:21.554Z,8.90
2022-10-19T23:22:52.283Z,9.28
2022-10-19T23:25:20.456Z,8.14
2022-10-19T23:27:53.023Z,6.72
2022-10-19T23:30:21.692Z,6.63
2022-10-19T23:32:49.318Z,7.80
2022-10-19T23:35:17.471Z,8.95
2022-10-19T23:37:48.400Z,9.59
2022-10-19T23:40:16.845Z,8.60
2022-10-19T23:42:45.916Z,6.83
2022-10-19T23:45:15.322Z,6.84
2022-10-19T23:47:43.224Z,8.15
2022-10-19T23:50:12.321Z,9.19
2022-10-19T23:52:40.051Z,8.95
2022-10-19T23:55:09.148Z,7.45
2022-10-19T23:57:37.919Z,6.14
